Time;durP1;ratioP1;P1;durP2;ratioP2;P2;SDS_P1;SDS_P2;PMS_P1;PMS_P2;Temp;Humidity;BMP_temperature;BMP_pressure;BME280_temperature;BME280_humidity;BME280_pressure;Samples;Min_cycle;Max_cycle;Signal;HPM_P1;HPM_P2
2023/06/28 00:00:33;;;;;;;1.17;0.63;;;20.70;91.90;;;;;;5015463;28;20040;-53
2023/06/28 00:03:00;;;;;;;2.38;1.00;;;20.70;91.50;;;;;;5033415;28;20029;-55
2023/06/28 00:05:26;;;;;;;2.80;1.00;;;20.70;91.70;;;;;;5033083;28;20155;-52
2023/06/28 00:07:52;;;;;;;7.30;1.10;;;20.60;91.60;;;;;;5033391;28;20049;-50
2023/06/28 00:10:18;;;;;;;5.32;1.08;;;20.40;92.10;;;;;;5033597;28;20029;-53
2023/06/28 00:12:43;;;;;;;0.95;0.68;;;20.40;92.70;;;;;;5032890;28;20037;-54
2023/06/28 00:15:10;;;;;;;2.95;0.98;;;20.50;92.60;;;;;;5048842;28;20112;-55
2023/06/28 00:17:35;;;;;;;1.35;0.85;;;20.50;92.40;;;;;;5032864;28;20040;-49
2023/06/28 00:20:07;;;;;;;1.63;0.90;;;20.40;92.20;;;;;;5033219;28;20034;-55
2023/06/28 00:22:34;;;;;;;1.23;0.70;;;20.40;92.20;;;;;;5031537;28;20109;-52
2023/06/28 00:25:03;;;;;;;1.75;0.88;;;20.30;92.90;;;;;;5048446;28;20140;-54
2023/06/28 00:27:29;;;;;;;3.38;0.98;;;20.30;93.40;;;;;;5032646;28;20037;-53
2023/06/28 00:29:56;;;;;;;1.73;1.00;;;20.20;94.40;;;;;;5032765;28;20032;-52
2023/06/28 00:32:24;;;;;;;1.63;0.88;;;20.20;94.50;;;;;;5025318;28;20481;-53
2023/06/28 00:34:49;;;;;;;2.80;0.95;;;20.20;94.00;;;;;;5033023;28;20029;-54
2023/06/28 00:37:15;;;;;;;4.68;0.93;;;20.20;93.90;;;;;;5025111;28;20036;-53
2023/06/28 00:39:41;;;;;;;3.05;1.02;;;20.30;94.30;;;;;;5032794;28;20461;-52
2023/06/28 00:42:07;;;;;;;3.25;1.00;;;20.20;93.80;;;;;;5032582;28;20048;-51
2023/06/28 00:44:34;;;;;;;1.98;0.95;;;20.20;94.60;;;;;;5032983;28;20033;-55
2023/06/28 00:47:02;;;;;;;4.55;1.52;;;20.20;94.70;;;;;;5025964;28;20064;-53
2023/06/28 00:49:35;;;;;;;5.75;1.13;;;20.20;94.80;;;;;;5031460;28;20037;-54
2023/06/28 00:52:02;;;;;;;1.73;0.82;;;20.20;94.40;;;;;;5025085;28;20041;-53
2023/06/28 00:54:29;;;;;;;1.20;0.77;;;20.30;94.20;;;;;;5032669;28;20056;-55
2023/06/28 00:56:55;;;;;;;3.00;0.90;;;20.30;93.30;;;;;;5025010;28;20036;-54
2023/06/28 00:59:21;;;;;;;4.30;1.10;;;20.40;93.20;;;;;;5032454;28;20029;-54
2023/06/28 01:01:50;;;;;;;3.50;0.93;;;20.40;93.00;;;;;;5031539;28;20103;-56
2023/06/28 01:04:16;;;;;;;1.00;0.60;;;20.40;93.40;;;;;;5046850;28;20056;-54
2023/06/28 01:06:51;;;;;;;2.50;0.98;;;20.40;92.70;;;;;;5024406;28;20100;-54
2023/06/28 01:09:19;;;;;;;3.42;1.10;;;20.40;92.30;;;;;;5030433;28;20099;-55
2023/06/28 01:11:51;;;;;;;1.92;0.55;;;20.40;91.90;;;;;;5040246;28;20412;-52
2023/06/28 01:14:18;;;;;;;2.28;0.70;;;20.50;91.50;;;;;;5047258;28;20038;-54
2023/06/28 01:16:49;;;;;;;1.67;0.63;;;20.50;91.50;;;;;;5030198;28;20128;-54
2023/06/28 01:19:16;;;;;;;0.60;0.50;;;20.50;91.40;;;;;;5031083;28;20022;-54
2023/06/28 01:21:48;;;;;;;2.75;0.70;;;20.50;91.40;;;;;;5031403;28;20041;-53
2023/06/28 01:24:14;;;;;;;1.52;0.77;;;20.50;91.30;;;;;;5031096;28;20079;-55
2023/06/28 01:26:41;;;;;;;1.75;0.85;;;20.50;91.40;;;;;;5030228;28;20684;-56
2023/06/28 01:29:07;;;;;;;2.35;0.75;;;20.40;91.90;;;;;;5030792;28;20039;-53
2023/06/28 01:31:36;;;;;;;1.48;0.73;;;20.50;91.70;;;;;;5031208;28;20080;-55
2023/06/28 01:34:02;;;;;;;1.00;0.52;;;20.40;91.70;;;;;;5030776;28;20045;-51
2023/06/28 01:36:29;;;;;;;1.00;0.50;;;20.40;91.70;;;;;;5025215;28;20429;-54
2023/06/28 01:38:56;;;;;;;1.73;0.90;;;20.50;91.80;;;;;;5030488;28;20025;-56
2023/06/28 01:41:23;;;;;;;1.35;0.73;;;20.50;91.70;;;;;;5023440;28;20397;-55
2023/06/28 01:43:49;;;;;;;2.42;0.63;;;20.40;91.90;;;;;;5031633;28;20018;-55
2023/06/28 01:46:15;;;;;;;1.58;0.70;;;20.40;92.50;;;;;;5024056;28;20041;-54
2023/06/28 01:48:41;;;;;;;0.93;0.60;;;20.70;91.80;;;;;;5030516;28;20045;-54
2023/06/28 01:51:08;;;;;;;3.63;0.93;;;20.80;92.00;;;;;;5030569;28;20132;-53
2023/06/28 01:53:34;;;;;;;2.22;0.90;;;20.60;91.70;;;;;;5030162;28;20105;-52
2023/06/28 01:56:00;;;;;;;2.53;0.80;;;20.60;91.90;;;;;;5028676;28;20456;-52
2023/06/28 01:58:25;;;;;;;2.53;1.10;;;20.50;91.80;;;;;;5030466;28;20026;-56
2023/06/28 02:00:51;;;;;;;2.83;1.00;;;20.40;91.80;;;;;;5030965;28;20038;-55
2023/06/28 02:03:17;;;;;;;0.93;0.70;;;20.30;91.90;;;;;;5030991;28;20113;-56
2023/06/28 02:05:42;;;;;;;2.60;1.35;;;20.30;92.30;;;;;;5030965;28;20036;-53
2023/06/28 02:08:08;;;;;;;2.13;0.60;;;20.20;92.30;;;;;;5046424;28;20025;-53
2023/06/28 02:10:34;;;;;;;1.58;0.80;;;20.20;92.50;;;;;;5030386;28;20417;-53
2023/06/28 02:13:00;;;;;;;8.45;1.20;;;20.20;92.40;;;;;;5030798;28;20040;-54
2023/06/28 02:15:26;;;;;;;1.92;0.98;;;20.20;92.60;;;;;;5030738;28;20037;-53
2023/06/28 02:17:55;;;;;;;2.15;0.63;;;20.20;92.40;;;;;;5031091;28;20021;-54
2023/06/28 02:20:22;;;;;;;2.95;0.68;;;20.20;92.50;;;;;;5030461;28;20025;-55
2023/06/28 02:22:47;;;;;;;1.83;0.90;;;20.30;92.60;;;;;;5030471;28;20040;-55
2023/06/28 02:25:13;;;;;;;0.93;0.65;;;20.20;92.50;;;;;;5031042;28;20041;-56
2023/06/28 02:27:40;;;;;;;1.80;0.80;;;20.20;92.70;;;;;;5024566;28;20041;-56
2023/06/28 02:30:07;;;;;;;3.42;1.33;;;20.20;92.80;;;;;;5030841;28;20040;-55
2023/06/28 02:32:33;;;;;;;2.85;0.85;;;20.20;93.00;;;;;;5023137;28;20056;-53
2023/06/28 02:34:58;;;;;;;1.20;0.65;;;20.20;93.10;;;;;;5030776;28;20494;-55
2023/06/28 02:37:25;;;;;;;2.97;0.80;;;20.10;93.00;;;;;;5030243;28;20040;-55
2023/06/28 02:39:51;;;;;;;0.95;0.68;;;20.20;93.20;;;;;;5030514;28;20048;-53
2023/06/28 02:42:16;;;;;;;2.35;0.63;;;20.20;93.10;;;;;;5029915;28;20540;-53
2023/06/28 02:44:42;;;;;;;1.13;0.90;;;20.30;93.10;;;;;;5030863;28;20037;-51
2023/06/28 02:47:08;;;;;;;12.05;1.23;;;20.30;93.20;;;;;;5029979;28;20044;-55
2023/06/28 02:49:34;;;;;;;5.78;1.10;;;20.40;93.10;;;;;;5045671;28;20515;-53
2023/06/28 02:51:59;;;;;;;0.90;0.70;;;20.40;93.00;;;;;;5030108;28;20040;-54
2023/06/28 02:54:25;;;;;;;1.73;0.82;;;20.30;93.10;;;;;;5030548;28;20496;-56
2023/06/28 02:56:51;;;;;;;1.05;0.60;;;20.30;93.20;;;;;;5029875;28;20043;-57
2023/06/28 02:59:16;;;;;;;3.80;0.90;;;20.30;93.10;;;;;;5030395;28;20022;-53
2023/06/28 03:01:42;;;;;;;1.45;0.90;;;20.30;93.20;;;;;;5039110;28;20095;-55
2023/06/28 03:04:08;;;;;;;1.73;0.80;;;20.30;93.40;;;;;;5030299;28;20724;-55
2023/06/28 03:06:35;;;;;;;3.85;0.80;;;20.30;93.40;;;;;;5023990;28;20112;-55
2023/06/28 03:09:01;;;;;;;2.08;0.82;;;20.20;93.50;;;;;;5030214;28;20033;-55
2023/06/28 03:11:27;;;;;;;4.30;1.00;;;20.20;93.60;;;;;;5033262;28;20025;-55
2023/06/28 03:13:52;;;;;;;3.35;0.80;;;20.10;93.70;;;;;;5034272;28;20500;-51
2023/06/28 03:16:18;;;;;;;3.83;1.00;;;20.10;93.70;;;;;;5033884;28;20037;-54
2023/06/28 03:18:44;;;;;;;4.35;1.17;;;20.10;93.80;;;;;;5034453;28;20061;-52
2023/06/28 03:21:09;;;;;;;9.93;1.27;;;20.10;93.80;;;;;;5033734;28;20029;-54
2023/06/28 03:23:36;;;;;;;2.85;0.98;;;20.20;94.10;;;;;;5034048;28;20551;-53
2023/06/28 03:26:02;;;;;;;2.10;1.00;;;20.20;94.00;;;;;;5033986;28;20067;-54
2023/06/28 03:28:28;;;;;;;0.85;0.70;;;20.20;94.10;;;;;;5034026;28;20396;-49
2023/06/28 03:30:53;;;;;;;0.93;0.70;;;20.10;94.20;;;;;;5033589;28;20029;-55
2023/06/28 03:33:19;;;;;;;3.53;0.90;;;20.10;94.30;;;;;;5033732;28;20086;-55
2023/06/28 03:35:45;;;;;;;4.18;0.80;;;20.10;94.20;;;;;;5029615;28;20061;-56
2023/06/28 03:38:11;;;;;;;4.22;0.95;;;20.10;94.20;;;;;;5031107;28;20175;-51
2023/06/28 03:40:37;;;;;;;2.60;0.80;;;20.00;94.30;;;;;;5033406;28;20088;-51
2023/06/28 03:43:03;;;;;;;6.15;1.77;;;20.00;94.50;;;;;;5033887;28;20053;-55
2023/06/28 03:45:33;;;;;;;2.03;1.13;;;20.00;94.50;;;;;;5033290;28;20021;-55
2023/06/28 03:47:59;;;;;;;2.97;0.80;;;20.00;94.60;;;;;;4998614;28;20266;-55
2023/06/28 03:50:25;;;;;;;2.33;0.95;;;19.90;94.70;;;;;;5027620;28;20029;-50
2023/06/28 03:52:51;;;;;;;2.70;0.80;;;19.90;94.80;;;;;;5042026;28;20030;-53
2023/06/28 03:55:17;;;;;;;1.10;0.80;;;19.90;94.70;;;;;;5023106;28;20441;-55
2023/06/28 03:57:42;;;;;;;1.70;0.52;;;20.00;94.70;;;;;;5026831;28;20069;-54
2023/06/28 04:00:10;;;;;;;2.63;1.08;;;20.10;94.40;;;;;;5029588;28;20112;-53
2023/06/28 04:02:36;;;;;;;1.20;0.90;;;20.00;94.60;;;;;;5033595;28;20044;-54
2023/06/28 04:05:03;;;;;;;3.30;1.33;;;20.00;94.80;;;;;;5033024;28;20033;-52
2023/06/28 04:07:29;;;;;;;2.03;1.08;;;19.90;95.10;;;;;;5041658;22;20044;-49
2023/06/28 04:09:54;;;;;;;5.13;0.95;;;19.90;95.30;;;;;;5018825;28;20444;-51
2023/06/28 04:12:20;;;;;;;4.25;1.15;;;20.00;95.50;;;;;;5011009;28;20030;-53
2023/06/28 04:14:46;;;;;;;2.97;0.80;;;20.00;95.30;;;;;;5012875;28;20033;-50
2023/06/28 04:17:12;;;;;;;1.65;1.00;;;20.00;95.20;;;;;;5007173;28;20034;-53
2023/06/28 04:19:38;;;;;;;1.35;0.50;;;20.00;95.40;;;;;;5036513;28;20033;-52
2023/06/28 04:22:04;;;;;;;2.17;0.80;;;20.10;95.30;;;;;;5006445;28;20034;-54
2023/06/28 04:24:29;;;;;;;2.65;1.10;;;20.10;95.30;;;;;;5012753;28;20036;-51
2023/06/28 04:27:00;;;;;;;2.88;0.80;;;20.10;95.40;;;;;;5008860;28;20026;-53
2023/06/28 04:29:29;;;;;;;1.75;0.90;;;20.10;95.60;;;;;;5011944;28;20073;-50
2023/06/28 04:32:02;;;;;;;1.98;1.05;;;20.00;95.70;;;;;;5008705;28;20045;-52
2023/06/28 04:34:29;;;;;;;4.70;0.88;;;20.00;96.00;;;;;;5035516;28;20033;-49
2023/06/28 04:36:57;;;;;;;4.65;0.80;;;20.00;96.00;;;;;;5008138;28;20068;-53
2023/06/28 04:39:23;;;;;;;2.25;1.13;;;20.00;95.70;;;;;;5025380;28;20037;-49
2023/06/28 04:41:48;;;;;;;2.58;1.20;;;20.00;95.70;;;;;;5024307;28;20058;-49
2023/06/28 04:44:15;;;;;;;0.85;0.55;;;20.00;95.60;;;;;;5010087;28;20119;-49
2023/06/28 04:46:44;;;;;;;5.03;1.25;;;20.10;95.50;;;;;;5010439;28;20156;-51
2023/06/28 04:49:10;;;;;;;3.60;1.48;;;20.00;95.70;;;;;;5009354;28;20034;-54
2023/06/28 04:51:36;;;;;;;5.47;0.85;;;20.00;95.70;;;;;;5010499;28;20033;-52
2023/06/28 04:54:02;;;;;;;4.40;1.30;;;20.00;95.70;;;;;;5008367;28;20049;-52
2023/06/28 04:56:29;;;;;;;1.08;0.90;;;20.00;95.80;;;;;;5011542;28;20080;-50
2023/06/28 04:58:55;;;;;;;1.30;0.68;;;20.00;95.80;;;;;;5007678;28;20490;-50
2023/06/28 05:01:21;;;;;;;1.48;1.02;;;20.00;95.90;;;;;;5011832;28;20038;-48
2023/06/28 05:03:47;;;;;;;5.75;1.08;;;20.00;96.00;;;;;;5006543;28;20034;-52
2023/06/28 05:06:13;;;;;;;1.58;0.88;;;20.10;95.80;;;;;;5012497;28;20032;-49
2023/06/28 05:08:39;;;;;;;3.22;1.42;;;20.20;95.50;;;;;;5005504;28;20065;-55
2023/06/28 05:11:07;;;;;;;2.92;1.08;;;20.20;95.30;;;;;;5014478;28;20061;-53
2023/06/28 05:13:33;;;;;;;4.53;1.00;;;20.20;95.40;;;;;;5028991;28;20087;-54
2023/06/28 05:15:59;;;;;;;1.77;0.80;;;20.20;95.50;;;;;;5027916;28;20104;-52
2023/06/28 05:18:25;;;;;;;3.85;1.00;;;20.30;95.40;;;;;;5011245;28;20041;-52
2023/06/28 05:20:51;;;;;;;1.42;0.70;;;20.20;95.60;;;;;;5037967;28;20061;-50
2023/06/28 05:23:20;;;;;;;3.90;1.25;;;20.30;95.60;;;;;;5005608;28;20480;-54
2023/06/28 05:25:46;;;;;;;2.00;0.70;;;20.20;96.00;;;;;;5012370;28;20033;-51
2023/06/28 05:28:14;;;;;;;3.67;1.02;;;20.20;95.80;;;;;;5030184;28;20409;-52
2023/06/28 05:30:42;;;;;;;5.35;1.85;;;20.00;96.40;;;;;;5036116;28;20087;-52
2023/06/28 05:33:09;;;;;;;2.28;1.25;;;20.10;96.40;;;;;;5005503;28;20041;-53
2023/06/28 05:35:35;;;;;;;4.22;1.10;;;20.10;96.30;;;;;;5011914;28;20052;-52
2023/06/28 05:38:06;;;;;;;2.72;0.93;;;20.00;96.50;;;;;;5030072;28;20048;-53
2023/06/28 05:40:33;;;;;;;2.63;1.20;;;20.10;96.40;;;;;;5011422;28;20026;-52
2023/06/28 05:42:59;;;;;;;2.63;1.00;;;20.20;96.10;;;;;;5029586;28;20073;-50
2023/06/28 05:45:25;;;;;;;3.33;1.17;;;20.30;95.70;;;;;;5011853;28;20111;-56
2023/06/28 05:47:52;;;;;;;3.17;1.00;;;20.40;95.60;;;;;;5030072;28;20040;-54
2023/06/28 05:50:21;;;;;;;2.33;1.73;;;20.50;95.50;;;;;;5001795;28;20533;-53
2023/06/28 05:52:47;;;;;;;2.58;1.08;;;20.50;95.00;;;;;;5029149;28;20771;-54
2023/06/28 05:55:14;;;;;;;2.70;0.95;;;20.60;95.10;;;;;;5011641;28;20045;-54
2023/06/28 05:57:40;;;;;;;2.63;0.98;;;20.70;94.80;;;;;;5004806;28;20397;-52
2023/06/28 06:00:09;;;;;;;2.33;0.65;;;20.80;94.70;;;;;;5021725;28;20037;-54
2023/06/28 06:02:35;;;;;;;3.13;1.00;;;20.80;94.70;;;;;;4991234;28;20041;-53
2023/06/28 06:05:03;;;;;;;3.75;1.00;;;20.70;94.80;;;;;;5008228;28;20073;-53
2023/06/28 06:07:30;;;;;;;1.63;0.80;;;20.60;95.00;;;;;;5009769;28;20036;-54
2023/06/28 06:09:58;;;;;;;4.43;1.42;;;20.40;95.30;;;;;;5011104;28;20494;-53
2023/06/28 06:12:24;;;;;;;2.97;0.90;;;20.40;95.40;;;;;;5010540;28;20037;-53
2023/06/28 06:14:50;;;;;;;4.07;1.27;;;20.40;95.40;;;;;;5019925;28;20037;-50
2023/06/28 06:17:18;;;;;;;5.55;1.02;;;20.50;95.10;;;;;;5042248;28;20115;-52
2023/06/28 06:19:43;;;;;;;8.15;1.05;;;20.50;95.00;;;;;;5011109;28;20018;-51
2023/06/28 06:22:09;;;;;;;2.40;0.93;;;20.40;94.90;;;;;;5025688;28;20037;-53
2023/06/28 06:24:35;;;;;;;1.88;0.90;;;20.50;94.80;;;;;;5018155;28;20083;-51
2023/06/28 06:27:01;;;;;;;12.02;1.83;;;20.70;94.20;;;;;;5011069;28;20053;-51
2023/06/28 06:29:27;;;;;;;1.90;0.70;;;20.80;94.00;;;;;;5010463;28;20025;-50
2023/06/28 06:31:53;;;;;;;7.50;1.40;;;20.90;93.70;;;;;;5011148;28;20026;-51
2023/06/28 06:34:19;;;;;;;3.90;1.10;;;21.20;92.90;;;;;;5009926;28;20080;-49
2023/06/28 06:36:44;;;;;;;1.75;0.90;;;21.10;92.90;;;;;;5011100;28;20022;-67
2023/06/28 06:39:10;;;;;;;0.57;0.50;;;21.10;93.20;;;;;;5010521;28;20438;-67
2023/06/28 06:41:36;;;;;;;1.42;0.80;;;21.00;93.50;;;;;;5042379;28;20040;-66
2023/06/28 06:44:02;;;;;;;1.05;0.57;;;20.90;94.10;;;;;;5009866;28;20046;-67
2023/06/28 06:46:27;;;;;;;2.15;0.85;;;21.00;93.40;;;;;;5010653;28;20065;-66
2023/06/28 06:48:54;;;;;;;4.63;0.90;;;21.10;93.10;;;;;;5037898;28;20026;-66
2023/06/28 06:51:20;;;;;;;2.47;1.00;;;21.20;93.10;;;;;;5010622;28;20025;-66
2023/06/28 06:53:46;;;;;;;2.28;0.70;;;21.20;93.10;;;;;;5015280;28;20076;-66
2023/06/28 06:56:12;;;;;;;0.63;0.47;;;21.40;92.90;;;;;;5011272;28;20385;-66
2023/06/28 06:58:37;;;;;;;1.20;0.55;;;21.50;92.60;;;;;;5009556;28;20126;-66
2023/06/28 07:01:03;;;;;;;2.85;0.70;;;21.30;92.50;;;;;;5035621;28;20104;-66
2023/06/28 07:03:29;;;;;;;8.85;0.98;;;21.40;92.80;;;;;;4999920;28;20033;-66
2023/06/28 07:05:55;;;;;;;2.70;0.85;;;21.50;92.70;;;;;;5010783;28;20389;-68
2023/06/28 07:08:21;;;;;;;3.53;1.02;;;21.50;92.10;;;;;;5040214;28;20049;-68
2023/06/28 07:10:46;;;;;;;4.00;1.55;;;21.50;92.10;;;;;;5035743;28;20092;-68
2023/06/28 07:13:14;;;;;;;4.35;0.75;;;21.40;92.40;;;;;;5040064;28;20045;-68
2023/06/28 07:15:40;;;;;;;0.63;0.47;;;21.40;92.40;;;;;;5018773;28;20509;-68
2023/06/28 07:18:05;;;;;;;2.08;0.57;;;21.30;92.30;;;;;;5040254;28;20037;-68
2023/06/28 07:20:31;;;;;;;1.85;1.10;;;21.00;92.90;;;;;;5010361;28;20026;-68
2023/06/28 07:22:57;;;;;;;2.63;0.75;;;21.20;93.00;;;;;;5009889;28;20034;-67
2023/06/28 07:25:22;;;;;;;4.78;1.20;;;21.10;93.00;;;;;;5010670;28;20148;-68
2023/06/28 07:27:48;;;;;;;5.25;0.70;;;21.20;92.80;;;;;;5007777;28;20034;-68
2023/06/28 07:30:14;;;;;;;2.13;0.90;;;21.20;93.00;;;;;;5000693;28;20386;-68
2023/06/28 07:32:40;;;;;;;1.05;0.65;;;21.30;92.80;;;;;;5009314;28;20038;-67
2023/06/28 07:35:06;;;;;;;2.47;1.02;;;21.20;92.70;;;;;;5010641;28;20037;-68
2023/06/28 07:37:32;;;;;;;4.10;0.82;;;21.30;92.50;;;;;;5009612;28;20557;-67
2023/06/28 07:39:58;;;;;;;5.03;1.10;;;21.20;92.70;;;;;;5033697;28;20153;-68
2023/06/28 07:42:24;;;;;;;2.03;0.82;;;21.40;92.70;;;;;;5040924;28;20412;-68
2023/06/28 07:44:50;;;;;;;3.85;0.70;;;21.50;92.60;;;;;;5033942;28;20121;-68
2023/06/28 07:47:16;;;;;;;2.72;1.13;;;21.50;92.20;;;;;;5041022;28;20187;-69
2023/06/28 07:49:42;;;;;;;2.17;0.70;;;21.70;92.10;;;;;;5010228;28;20136;-68
2023/06/28 07:52:09;;;;;;;3.20;0.82;;;21.70;91.70;;;;;;5041202;28;20100;-68
2023/06/28 07:54:35;;;;;;;1.55;0.75;;;21.70;91.60;;;;;;5002430;28;20029;-68
2023/06/28 07:57:01;;;;;;;3.40;0.98;;;21.70;91.40;;;;;;5011226;28;20029;-69
2023/06/28 07:59:26;;;;;;;2.28;0.77;;;21.90;91.40;;;;;;5036907;28;20029;-68
2023/06/28 08:01:52;;;;;;;1.27;0.68;;;21.90;91.80;;;;;;5013986;28;20026;-68
2023/06/28 08:04:20;;;;;;;1.92;0.90;;;22.20;91.50;;;;;;5012917;28;20512;-69
2023/06/28 08:06:46;;;;;;;0.38;0.38;;;22.20;91.20;;;;;;5045419;28;20140;-69
2023/06/28 08:09:12;;;;;;;3.22;1.00;;;22.30;91.40;;;;;;5012944;28;20038;-69
2023/06/28 08:11:38;;;;;;;2.97;1.60;;;22.60;90.90;;;;;;5012679;28;20056;-68
2023/06/28 08:14:04;;;;;;;4.10;1.10;;;22.30;91.00;;;;;;5012495;28;20537;-68
2023/06/28 08:16:30;;;;;;;2.35;0.68;;;21.80;91.10;;;;;;5028568;28;20112;-68
2023/06/28 08:18:56;;;;;;;3.30;1.65;;;21.90;91.40;;;;;;5013819;28;20101;-68
2023/06/28 08:21:21;;;;;;;0.95;0.60;;;21.70;91.70;;;;;;4997167;28;20056;-68
2023/06/28 08:23:47;;;;;;;3.60;0.82;;;22.10;91.50;;;;;;5012636;28;20038;-68
2023/06/28 08:26:13;;;;;;;5.28;0.95;;;21.60;91.50;;;;;;5013534;28;20045;-68
2023/06/28 08:28:38;;;;;;;3.58;1.30;;;21.50;91.90;;;;;;5018457;28;20504;-69
2023/06/28 08:31:04;;;;;;;1.30;0.80;;;21.80;91.60;;;;;;5013062;28;20033;-69
2023/06/28 08:33:30;;;;;;;4.13;1.58;;;22.20;91.00;;;;;;5012130;28;20548;-67
2023/06/28 08:35:56;;;;;;;2.78;1.35;;;22.70;90.30;;;;;;5013262;28;20040;-67
2023/06/28 08:38:21;;;;;;;5.65;1.15;;;23.20;90.00;;;;;;5011877;28;20037;-68
2023/06/28 08:40:48;;;;;;;5.03;0.77;;;23.40;88.50;;;;;;5012642;28;20030;-68
2023/06/28 08:43:16;;;;;;;1.75;0.80;;;22.30;89.80;;;;;;5042527;28;20111;-67
2023/06/28 08:45:46;;;;;;;1.65;0.93;;;22.20;90.30;;;;;;4995575;28;20033;-68
2023/06/28 08:48:13;;;;;;;2.63;0.90;;;22.80;90.40;;;;;;5012066;28;20098;-68
2023/06/28 08:50:40;;;;;;;2.25;1.27;;;23.00;88.70;;;;;;5012758;28;20041;-68
2023/06/28 08:53:09;;;;;;;2.65;0.60;;;22.90;87.40;;;;;;5012030;28;20034;-69
2023/06/28 08:55:37;;;;;;;2.42;1.05;;;22.80;87.70;;;;;;5028179;28;20477;-69
2023/06/28 08:58:06;;;;;;;2.22;0.93;;;22.90;88.10;;;;;;5041988;28;20030;-68
2023/06/28 09:00:32;;;;;;;1.95;0.60;;;23.10;87.50;;;;;;5035475;28;20030;-69
2023/06/28 09:02:58;;;;;;;2.85;0.75;;;23.40;85.90;;;;;;5011916;28;20037;-68
2023/06/28 09:05:24;;;;;;;1.85;0.80;;;23.40;85.50;;;;;;5019608;28;20026;-68
2023/06/28 09:07:53;;;;;;;1.63;0.70;;;23.10;86.20;;;;;;5041561;28;20084;-68
2023/06/28 09:10:19;;;;;;;2.53;0.82;;;22.80;86.40;;;;;;5012390;28;20026;-68
2023/06/28 09:12:47;;;;;;;7.20;1.63;;;23.70;84.60;;;;;;5042453;28;20691;-68
2023/06/28 09:15:12;;;;;;;1.35;0.52;;;24.10;83.40;;;;;;5019646;28;20048;-68
2023/06/28 09:17:38;;;;;;;1.88;0.95;;;23.90;82.20;;;;;;5011646;28;20397;-68
2023/06/28 09:20:21;;;;;;;4.47;1.38;;;23.80;83.10;;;;;;5011968;28;20092;-68
2023/06/28 09:22:58;;;;;;;3.47;0.77;;;23.80;81.30;;;;;;5011179;28;20053;-68
2023/06/28 09:25:30;;;;;;;9.13;1.05;;;23.20;82.70;;;;;;5012435;28;20030;-68
2023/06/28 09:28:05;;;;;;;1.95;0.85;;;23.00;83.00;;;;;;5020189;28;20119;-68
2023/06/28 09:30:30;;;;;;;2.78;0.80;;;23.00;82.20;;;;;;5010615;28;20045;-68
2023/06/28 09:32:56;;;;;;;1.55;0.93;;;23.40;82.20;;;;;;4997272;28;20026;-67
2023/06/28 09:35:23;;;;;;;5.93;0.98;;;22.70;82.60;;;;;;5012302;28;20037;-67
2023/06/28 09:37:54;;;;;;;1.80;0.70;;;23.00;82.60;;;;;;5041609;28;20145;-68
2023/06/28 09:40:20;;;;;;;1.23;0.73;;;23.70;83.20;;;;;;5034240;28;20021;-68
2023/06/28 09:42:48;;;;;;;3.22;1.38;;;23.60;81.90;;;;;;5010753;28;20485;-68
2023/06/28 09:45:36;;;;;;;1.67;0.70;;;23.60;82.20;;;;;;5002367;28;20066;-68
2023/06/28 09:48:05;;;;;;;1.63;0.75;;;23.90;81.40;;;;;;5010606;28;20033;-68
2023/06/28 09:50:45;;;;;;;5.00;1.10;;;23.20;81.80;;;;;;5034863;28;20033;-68
2023/06/28 09:53:21;;;;;;;1.77;0.88;;;23.00;83.60;;;;;;5010940;28;20045;-68
2023/06/28 09:55:51;;;;;;;2.20;1.05;;;23.80;83.00;;;;;;5011845;28;20060;-68
2023/06/28 09:58:20;;;;;;;2.20;1.37;;;23.80;81.10;;;;;;5010758;28;20026;-68
2023/06/28 10:00:49;;;;;;;1.67;0.77;;;23.70;81.70;;;;;;5036015;28;20037;-68
2023/06/28 10:03:19;;;;;;;3.58;0.80;;;23.80;80.70;;;;;;4999503;28;20041;-68
2023/06/28 10:05:45;;;;;;;1.55;0.80;;;23.80;81.30;;;;;;5036443;28;20048;-67
2023/06/28 10:08:14;;;;;;;2.65;0.98;;;23.90;81.00;;;;;;5010405;28;20057;-68
2023/06/28 10:10:43;;;;;;;2.03;0.90;;;23.90;81.80;;;;;;5027065;23;20045;-66
2023/06/28 10:13:29;;;;;;;2.72;0.80;;;23.80;81.60;;;;;;5004069;28;20584;-66
2023/06/28 10:16:11;;;;;;;4.40;1.02;;;24.50;80.30;;;;;;4987950;28;20099;-66
2023/06/28 10:18:37;;;;;;;2.10;0.95;;;24.20;80.50;;;;;;5003349;28;20030;-66
2023/06/28 10:21:06;;;;;;;2.65;1.10;;;24.00;80.10;;;;;;4990430;28;20026;-66
2023/06/28 10:23:37;;;;;;;3.50;0.95;;;24.10;80.90;;;;;;5009746;28;20029;-66
2023/06/28 10:26:03;;;;;;;2.72;0.98;;;23.90;80.50;;;;;;5010212;28;20038;-66
2023/06/28 10:28:32;;;;;;;3.30;1.10;;;24.20;81.10;;;;;;5010785;28;20105;-66
2023/06/28 10:30:59;;;;;;;2.17;1.33;;;24.90;79.80;;;;;;5024751;28;20040;-66
2023/06/28 10:33:27;;;;;;;3.45;0.68;;;24.90;79.90;;;;;;5025938;28;20041;-66
2023/06/28 10:35:55;;;;;;;2.67;1.02;;;23.90;81.20;;;;;;5020164;28;20045;-66
2023/06/28 10:38:21;;;;;;;3.35;1.23;;;24.40;80.20;;;;;;5023815;28;20037;-66
2023/06/28 10:40:47;;;;;;;5.75;1.63;;;25.10;78.40;;;;;;5005742;28;20154;-66
2023/06/28 10:43:25;;;;;;;7.07;1.20;;;25.60;77.20;;;;;;5007973;28;20037;-66
2023/06/28 10:45:52;;;;;;;2.35;1.13;;;25.60;76.50;;;;;;5020324;28;20042;-66
2023/06/28 10:48:23;;;;;;;7.63;1.30;;;25.80;76.20;;;;;;5008696;28;20037;-67
2023/06/28 10:50:50;;;;;;;5.55;1.73;;;25.20;77.00;;;;;;5005383;28;20037;-66
2023/06/28 10:53:25;;;;;;;10.10;1.70;;;25.40;76.80;;;;;;5023454;28;20030;-66
2023/06/28 10:56:19;;;;;;;2.90;1.15;;;25.60;76.60;;;;;;5005304;28;20490;-66
2023/06/28 10:58:47;;;;;;;2.45;1.15;;;25.70;76.20;;;;;;4991637;28;20434;-66
2023/06/28 11:01:38;;;;;;;6.28;2.17;;;25.50;76.80;;;;;;5007386;28;20368;-66
2023/06/28 11:04:25;;;;;;;2.08;1.10;;;24.90;77.10;;;;;;5010635;28;20076;-67
2023/06/28 11:07:03;;;;;;;5.68;1.10;;;25.30;77.90;;;;;;5017908;28;20175;-66
2023/06/28 11:09:29;;;;;;;6.00;1.45;;;25.10;76.30;;;;;;5010498;28;20048;-66
2023/06/28 11:11:59;;;;;;;1.95;0.93;;;25.00;78.00;;;;;;5002141;28;20485;-66
2023/06/28 11:14:27;;;;;;;2.90;1.17;;;25.50;77.70;;;;;;5025509;28;20033;-66
2023/06/28 11:17:14;;;;;;;3.75;1.52;;;25.70;76.10;;;;;;5017828;28;20072;-66
2023/06/28 11:19:42;;;;;;;5.28;1.50;;;25.90;75.80;;;;;;5003283;28;20030;-66
2023/06/28 11:22:07;;;;;;;3.20;1.13;;;25.50;76.00;;;;;;5002180;28;20037;-66
2023/06/28 11:24:33;;;;;;;4.22;1.13;;;25.80;75.70;;;;;;4999069;28;20042;-66
2023/06/28 11:27:00;;;;;;;5.53;1.05;;;25.30;75.40;;;;;;4998368;28;20553;-66
2023/06/28 11:29:26;;;;;;;4.07;1.40;;;25.80;76.20;;;;;;5025062;28;20083;-66
2023/06/28 11:31:56;;;;;;;2.85;1.13;;;25.90;75.80;;;;;;5026283;28;20436;-66
2023/06/28 11:34:23;;;;;;;4.00;1.60;;;25.40;76.50;;;;;;5014060;28;20044;-66
2023/06/28 11:36:51;;;;;;;1.65;0.80;;;25.90;75.30;;;;;;5006460;28;20358;-66
2023/06/28 11:39:22;;;;;;;5.05;1.17;;;26.10;75.40;;;;;;5014024;28;20033;-66
2023/06/28 11:41:48;;;;;;;5.47;1.35;;;26.50;74.70;;;;;;5005993;28;20076;-66
2023/06/28 11:44:15;;;;;;;5.38;1.02;;;26.30;74.50;;;;;;5014066;28;20073;-67
2023/06/28 11:46:46;;;;;;;3.72;1.40;;;26.10;74.90;;;;;;5006310;28;20038;-66
2023/06/28 11:49:14;;;;;;;1.48;0.80;;;26.70;74.50;;;;;;5028746;28;20394;-66
2023/06/28 11:51:41;;;;;;;4.85;1.17;;;26.90;74.20;;;;;;5006080;28;20033;-66
2023/06/28 11:54:08;;;;;;;21.88;1.88;;;26.80;74.60;;;;;;5028807;28;20022;-66
2023/06/28 11:56:42;;;;;;;2.30;1.00;;;27.10;74.30;;;;;;5006032;28;20017;-67
2023/06/28 11:59:19;;;;;;;2.85;1.00;;;27.30;73.20;;;;;;5013892;28;20025;-66
2023/06/28 12:01:46;;;;;;;4.38;1.63;;;27.30;73.30;;;;;;5010513;28;20079;-67
2023/06/28 12:04:20;;;;;;;4.30;0.93;;;27.10;73.20;;;;;;5013725;28;20018;-67
2023/06/28 12:06:48;;;;;;;1.38;1.00;;;26.90;73.60;;;;;;5004458;28;20034;-66
2023/06/28 12:09:26;;;;;;;1.63;0.77;;;26.90;73.90;;;;;;5028630;28;20033;-66
2023/06/28 12:11:58;;;;;;;5.22;0.80;;;26.90;73.60;;;;;;5019022;28;20034;-66
2023/06/28 12:14:25;;;;;;;6.10;1.15;;;26.60;74.10;;;;;;5012391;28;20040;-66
2023/06/28 12:16:51;;;;;;;2.50;1.08;;;25.50;75.90;;;;;;5012327;28;20458;-66
2023/06/28 12:19:19;;;;;;;4.07;1.08;;;25.40;76.40;;;;;;5028275;28;20034;-66
2023/06/28 12:21:46;;;;;;;7.47;1.10;;;25.80;76.30;;;;;;5019697;28;20465;-67
2023/06/28 12:24:21;;;;;;;8.05;1.40;;;25.30;76.80;;;;;;5028132;28;20041;-67
2023/06/28 12:26:52;;;;;;;4.38;0.90;;;24.80;77.40;;;;;;5005015;28;20061;-67
2023/06/28 12:29:23;;;;;;;5.57;2.13;;;25.10;77.90;;;;;;5012505;28;20030;-66
2023/06/28 12:31:54;;;;;;;2.42;1.23;;;25.30;77.00;;;;;;5005651;28;20061;-66
2023/06/28 12:34:27;;;;;;;;;;;25.20;77.40;;;;;;5028299;28;20040;-66
2023/06/28 12:37:10;;;;;;;2.67;1.23;;;24.90;77.70;;;;;;5005323;28;19988;-66
2023/06/28 12:39:39;;;;;;;4.45;1.27;;;25.30;77.60;;;;;;5018393;28;20049;-67
2023/06/28 12:42:26;;;;;;;4.18;1.33;;;25.50;77.70;;;;;;5004548;28;20026;-66
2023/06/28 12:44:58;;;;;;;3.08;1.17;;;25.50;77.10;;;;;;5007476;28;20037;-66
2023/06/28 12:47:26;;;;;;;1.65;1.10;;;25.60;77.10;;;;;;5005047;28;20440;-66
2023/06/28 12:49:53;;;;;;;2.15;1.08;;;25.70;76.80;;;;;;5011394;28;20034;-66